Time;durP1;ratioP1;P1;durP2;ratioP2;P2;SDS_P1;SDS_P2;PMS_P1;PMS_P2;Temp;Humidity;BMP_temperature;BMP_pressure;BME280_temperature;BME280_humidity;BME280_pressure;Samples;Min_cycle;Max_cycle;Signal;HPM_P1;HPM_P2
2022/11/03 00:01:36;;;;;;;;;;;;;;;7.98;67.59;101940.56;5039881;28;19923;-53
2022/11/03 00:04:02;;;;;;;;;;;;;;;7.93;67.70;101945.94;5042263;28;19912;-54
2022/11/03 00:06:27;;;;;;;;;;;;;;;7.89;67.75;101941.66;5043643;28;19958;-53
2022/11/03 00:08:56;;;;;;;;;;;;;;;7.85;67.73;101948.75;5047575;28;19921;-51
2022/11/03 00:11:21;;;;;;;;;;;;;;;7.81;67.69;101939.25;5044940;28;20008;-52
2022/11/03 00:13:47;;;;;;;;;;;;;;;7.75;67.90;101942.91;5036259;28;19995;-52
2022/11/03 00:16:12;;;;;;;;;;;;;;;7.73;67.90;101946.47;5030293;28;20292;-55
2022/11/03 00:18:37;;;;;;;;;;;;;;;7.70;67.92;101944.81;5038635;28;19925;-52
2022/11/03 00:21:07;;;;;;;;;;;;;;;7.67;67.95;101944.88;5038866;28;19945;-52
2022/11/03 00:23:34;;;;;;;;;;;;;;;7.67;68.20;101944.00;5041140;28;19964;-51
2022/11/03 00:26:20;;;;;;;;;;;;;;;7.69;68.25;101942.22;5037769;28;19928;-52
2022/11/03 00:28:46;;;;;;;;;;;;;;;7.63;68.36;101949.34;5044521;28;19917;-51
2022/11/03 00:31:16;;;;;;;;;;;;;;;7.61;68.47;101959.00;5042866;28;19920;-51
2022/11/03 00:33:42;;;;;;;;;;;;;;;7.57;68.58;101957.34;5038087;28;20387;-51
2022/11/03 00:36:09;;;;;;;;;;;;;;;7.55;68.46;101959.16;5037444;28;19960;-52
2022/11/03 00:38:36;;;;;;;;;;;;;;;7.52;68.76;101956.59;5044762;28;19971;-52
2022/11/03 00:41:02;;;;;;;;;;;;;;;7.52;68.62;101948.75;5037868;28;19916;-54
2022/11/03 00:43:28;;;;;;;;;;;;;;;7.53;68.70;101945.22;5038448;28;19921;-53
2022/11/03 00:45:54;;;;;;;;;;;;;;;7.53;68.80;101945.22;5037771;28;19925;-52
2022/11/03 00:48:28;;;;;;;;;;;;;;;7.52;68.69;101948.75;5039724;28;19924;-57
2022/11/03 00:50:58;;;;;;;;;;;;;;;7.51;68.86;101946.16;5038205;28;20380;-51
2022/11/03 00:53:23;;;;;;;;;;;;;;;7.51;68.63;101943.56;5036939;28;19917;-52
2022/11/03 00:55:49;;;;;;;;;;;;;;;7.48;69.00;101941.88;5037584;28;19928;-54
2022/11/03 00:58:14;;;;;;;;;;;;;;;7.46;68.80;101948.91;5042614;28;19927;-51
2022/11/03 01:00:39;;;;;;;;;;;;;;;7.45;68.90;101944.56;5037533;28;19921;-52
2022/11/03 01:03:05;;;;;;;;;;;;;;;7.44;68.90;101940.22;5037587;28;20282;-51
2022/11/03 01:08:14;;;;;;;;;;;;;;;7.43;68.74;101943.75;5044239;28;19924;-51
2022/11/03 01:11:42;;;;;;;;;;;;;;;7.40;68.89;101941.19;5037382;28;19933;-52
2022/11/03 01:13:25;;;;;;;;;;;;;;;7.35;68.75;101929.97;5040349;28;19921;-51
2022/11/03 01:15:50;;;;;;;;;;;;;;;7.31;68.77;101929.19;5037201;28;19924;-52
2022/11/03 01:18:16;;;;;;;;;;;;;;;7.29;68.61;101929.25;5041182;28;20376;-53
2022/11/03 01:20:41;;;;;;;;;;;;;;;7.23;68.76;101924.16;5035958;28;19952;-51
2022/11/03 01:23:06;;;;;;;;;;;;;;;7.20;68.77;101928.59;5036967;28;19925;-52
2022/11/03 01:25:34;;;;;;;;;;;;;;;7.16;68.60;101925.22;5038642;28;20003;-51
2022/11/03 01:28:01;;;;;;;;;;;;;;;7.10;68.60;101926.22;5040962;28;20012;-55
2022/11/03 01:30:26;;;;;;;;;;;;;;;7.06;68.82;101926.31;5037353;28;20436;-53
2022/11/03 01:32:51;;;;;;;;;;;;;;;7.02;68.93;101928.16;5034321;28;20007;-51
2022/11/03 01:35:16;;;;;;;;;;;;;;;6.98;69.00;101918.66;5042479;28;20079;-52
2022/11/03 01:37:42;;;;;;;;;;;;;;;6.94;69.19;101915.25;5041896;28;19967;-51
2022/11/03 01:40:07;;;;;;;;;;;;;;;6.90;69.50;101913.59;5042214;28;20295;-52
2022/11/03 01:42:33;;;;;;;;;;;;;;;6.88;69.42;101912.78;5042230;28;20003;-53
2022/11/03 01:44:58;;;;;;;;;;;;;;;6.88;69.33;101911.91;5039417;28;19929;-51
2022/11/03 01:47:31;;;;;;;;;;;;;;;6.84;69.47;101914.59;5034452;28;20380;-55
2022/11/03 01:50:01;;;;;;;;;;;;;;;6.82;69.16;101899.84;5044492;28;19967;-52
2022/11/03 01:52:27;;;;;;;;;;;;;;;6.79;69.25;101910.38;5040994;28;19924;-54
2022/11/03 01:54:57;;;;;;;;;;;;;;;6.78;69.29;101908.66;5037016;28;19917;-51
2022/11/03 01:57:24;;;;;;;;;;;;;;;6.76;69.49;101899.97;5036652;28;19921;-51
2022/11/03 01:59:50;;;;;;;;;;;;;;;6.74;69.42;101902.63;5035407;28;19921;-53
2022/11/03 02:02:16;;;;;;;;;;;;;;;6.76;69.42;101897.34;5036956;28;19917;-52
2022/11/03 02:04:41;;;;;;;;;;;;;;;6.74;69.17;101894.78;5035904;28;20292;-51
2022/11/03 02:07:07;;;;;;;;;;;;;;;6.75;69.42;101899.13;5036053;28;19917;-51
2022/11/03 02:09:32;;;;;;;;;;;;;;;6.75;69.55;101895.63;5035875;28;19974;-51
2022/11/03 02:12:07;;;;;;;;;;;;;;;6.76;69.51;101897.34;5040985;28;19921;-51
2022/11/03 02:14:34;;;;;;;;;;;;;;;6.74;69.54;101896.53;5037105;28;19920;-51
2022/11/03 02:17:02;;;;;;;;;;;;;;;6.78;69.89;101887.72;5036375;28;19932;-51
2022/11/03 02:19:33;;;;;;;;;;;;;;;6.77;69.81;101883.38;5039138;28;19921;-53
2022/11/03 02:22:07;;;;;;;;;;;;;;;6.77;69.76;101881.66;5038305;28;20438;-52
2022/11/03 02:24:43;;;;;;;;;;;;;;;6.76;69.67;101879.91;5035082;28;20396;-51
2022/11/03 02:27:08;;;;;;;;;;;;;;;6.74;69.37;101875.59;5036957;28;19921;-52
2022/11/03 02:29:33;;;;;;;;;;;;;;;6.70;69.75;101872.19;5040143;28;19932;-52
2022/11/03 02:32:04;;;;;;;;;;;;;;;6.67;69.62;101870.53;5038247;28;20396;-51
2022/11/03 02:34:36;;;;;;;;;;;;;;;6.66;69.84;101868.81;5041437;28;19913;-51
2022/11/03 02:37:04;;;;;;;;;;;;;;;6.62;69.66;101861.91;5039748;28;20058;-52
2022/11/03 02:39:40;;;;;;;;;;;;;;;6.60;69.51;101861.09;5033813;28;19928;-52
2022/11/03 02:42:06;;;;;;;;;;;;;;;6.60;69.71;101862.88;5038460;28;19997;-51
2022/11/03 02:44:32;;;;;;;;;;;;;;;6.59;69.52;101867.22;5039339;28;19959;-51
2022/11/03 02:46:59;;;;;;;;;;;;;;;6.58;69.36;101860.25;5037325;28;20365;-52
2022/11/03 02:49:26;;;;;;;;;;;;;;;6.54;69.17;101856.88;5042177;28;19932;-51
2022/11/03 02:52:01;;;;;;;;;;;;;;;6.52;69.44;101855.19;5042773;28;19960;-52
2022/11/03 02:54:30;;;;;;;;;;;;;;;6.53;69.25;101851.69;5043016;28;19928;-52
2022/11/03 02:56:58;;;;;;;;;;;;;;;6.51;69.74;101859.53;5038347;28;19917;-51
2022/11/03 02:59:28;;;;;;;;;;;;;;;6.54;69.55;101863.88;5038854;28;19924;-53
2022/11/03 03:02:00;;;;;;;;;;;;;;;6.52;69.46;101852.56;5041931;28;20331;-52
2022/11/03 03:04:29;;;;;;;;;;;;;;;6.47;69.49;101854.44;5035542;28;19921;-51
2022/11/03 03:07:10;;;;;;;;;;;;;;;6.44;69.62;101857.09;5043670;28;19930;-52
2022/11/03 03:09:53;;;;;;;;;;;;;;;6.40;69.62;101851.97;5032246;28;21037;-51
2022/11/03 03:12:19;;;;;;;;;;;;;;;6.38;69.42;101848.53;5036922;28;19921;-53
2022/11/03 03:14:46;;;;;;;;;;;;;;;6.36;69.66;101845.06;5036918;28;19921;-52
2022/11/03 03:17:23;;;;;;;;;;;;;;;6.32;69.78;101838.19;5037933;28;20017;-51
2022/11/03 03:20:03;;;;;;;;;;;;;;;6.30;69.88;101833.91;5040496;28;19960;-52
2022/11/03 03:22:38;;;;;;;;;;;;;;;6.25;69.71;101831.41;5031626;28;20304;-54
2022/11/03 03:25:06;;;;;;;;;;;;;;;6.25;70.12;101826.16;5038081;28;19917;-51
2022/11/03 03:27:33;;;;;;;;;;;;;;;6.24;70.21;101814.00;5035349;28;19917;-51
2022/11/03 03:30:04;;;;;;;;;;;;;;;6.22;70.20;101818.38;5035682;28;19918;-52
2022/11/03 03:32:32;;;;;;;;;;;;;;;6.20;70.06;101818.41;5038887;28;19921;-52
2022/11/03 03:34:58;;;;;;;;;;;;;;;6.21;70.24;101808.81;5043082;28;19925;-52
2022/11/03 03:37:25;;;;;;;;;;;;;;;6.20;70.29;101809.72;5039997;28;19929;-51
2022/11/03 03:39:53;;;;;;;;;;;;;;;6.20;69.99;101809.72;5040414;28;20463;-52
2022/11/03 03:42:20;;;;;;;;;;;;;;;6.20;70.21;101810.56;5038482;28;19932;-53
2022/11/03 03:44:46;;;;;;;;;;;;;;;6.20;70.08;101809.72;5041854;28;19921;-51
2022/11/03 03:47:20;;;;;;;;;;;;;;;6.19;70.29;101802.78;5038959;28;19917;-55
2022/11/03 03:49:46;;;;;;;;;;;;;;;6.18;70.38;101809.75;5038696;28;20007;-51
2022/11/03 03:52:11;;;;;;;;;;;;;;;6.17;70.40;101810.66;5038964;28;20000;-52
2022/11/03 03:54:36;;;;;;;;;;;;;;;6.21;70.12;101809.66;5037821;28;19975;-52
2022/11/03 03:57:03;;;;;;;;;;;;;;;6.20;70.10;101817.56;5034701;28;20298;-52
2022/11/03 03:59:28;;;;;;;;;;;;;;;6.20;70.35;101817.56;5036344;28;19959;-51
2022/11/03 04:01:54;;;;;;;;;;;;;;;6.23;70.46;101822.72;5039714;28;20003;-52
2022/11/03 04:04:19;;;;;;;;;;;;;;;6.26;70.78;101814.81;5038117;28;19917;-51
2022/11/03 04:06:44;;;;;;;;;;;;;;;6.31;70.96;101810.31;5038599;28;19925;-52
2022/11/03 04:09:10;;;;;;;;;;;;;;;6.40;70.88;101819.72;5035233;28;19924;-55
2022/11/03 04:22:31;;;;;;;;;;;;;;;6.77;71.05;101812.75;5038780;28;19924;-51
2022/11/03 04:24:57;;;;;;;;;;;;;;;6.83;71.03;101812.63;5036322;28;19916;-52
2022/11/03 04:27:28;;;;;;;;;;;;;;;6.87;71.09;101809.03;5042929;28;20016;-52
2022/11/03 04:29:56;;;;;;;;;;;;;;;6.89;71.11;101814.22;5037590;28;20586;-51
2022/11/03 04:32:21;;;;;;;;;;;;;;;6.92;70.95;101812.38;5035158;28;19975;-52
2022/11/03 04:34:47;;;;;;;;;;;;;;;6.97;70.97;101814.88;5034113;28;19964;-51
2022/11/03 04:37:13;;;;;;;;;;;;;;;6.99;71.12;101819.19;5020103;28;20015;-52
2022/11/03 04:39:38;;;;;;;;;;;;;;;7.03;71.24;101811.25;5034348;28;20284;-51
2022/11/03 04:42:11;;;;;;;;;;;;;;;7.05;71.27;101805.06;5041662;28;20291;-52
2022/11/03 04:44:36;;;;;;;;;;;;;;;7.04;71.59;101805.09;5042029;28;20411;-51
2022/11/03 04:47:04;;;;;;;;;;;;;;;7.04;71.32;101795.50;5038673;28;19920;-51
2022/11/03 04:49:29;;;;;;;;;;;;;;;7.06;71.48;101798.06;5034341;28;19977;-54
2022/11/03 04:51:54;;;;;;;;;;;;;;;7.05;71.22;101789.38;5038614;28;20324;-51
2022/11/03 04:54:22;;;;;;;;;;;;;;;7.02;71.39;101786.81;5040867;28;20016;-54
2022/11/03 04:56:47;;;;;;;;;;;;;;;6.95;71.59;101786.13;5046849;28;19970;-51
2022/11/03 04:59:14;;;;;;;;;;;;;;;6.94;71.49;101781.78;5043368;28;19920;-52
2022/11/03 05:01:39;;;;;;;;;;;;;;;6.96;71.72;101787.84;5041752;28;19917;-51
2022/11/03 05:04:12;;;;;;;;;;;;;;;6.97;71.69;101784.34;5035033;28;19936;-51
2022/11/03 05:06:38;;;;;;;;;;;;;;;6.92;71.70;101785.34;5042825;28;20364;-51
2022/11/03 05:09:10;;;;;;;;;;;;;;;6.88;71.96;101783.72;5041326;28;19921;-53
2022/11/03 05:11:40;;;;;;;;;;;;;;;6.86;71.93;101776.75;5039279;28;19913;-51
2022/11/03 05:14:13;;;;;;;;;;;;;;;6.79;72.34;101772.59;5042423;28;19913;-51
2022/11/03 05:16:38;;;;;;;;;;;;;;;6.75;72.34;101767.44;5041680;28;19923;-53
2022/11/03 05:19:07;;;;;;;;;;;;;;;6.73;72.38;101769.28;5042581;28;19921;-51
2022/11/03 05:21:32;;;;;;;;;;;;;;;6.69;72.32;101771.09;5039131;28;19931;-53
2022/11/03 05:24:01;;;;;;;;;;;;;;;6.65;72.26;101762.47;5044408;28;19924;-51
2022/11/03 05:26:31;;;;;;;;;;;;;;;6.60;72.49;101756.47;5047982;28;20076;-52
2022/11/03 05:28:59;;;;;;;;;;;;;;;6.55;72.81;101763.59;5049045;28;19982;-52
2022/11/03 05:31:28;;;;;;;;;;;;;;;6.53;72.59;101752.31;5047607;28;19924;-51
2022/11/03 05:33:58;;;;;;;;;;;;;;;6.50;72.48;101752.38;5041603;28;19929;-51
2022/11/03 05:36:24;;;;;;;;;;;;;;;6.47;72.96;101750.72;5044148;28;19928;-51
2022/11/03 05:38:54;;;;;;;;;;;;;;;6.47;72.86;101748.09;5047167;28;19972;-51
2022/11/03 05:41:22;;;;;;;;;;;;;;;6.46;72.71;101741.16;5049648;28;19966;-55
2022/11/03 05:43:52;;;;;;;;;;;;;;;6.44;72.52;101742.94;5039027;28;19917;-51
2022/11/03 05:46:18;;;;;;;;;;;;;;;6.42;72.78;101738.66;5042002;28;19952;-51
2022/11/03 05:48:43;;;;;;;;;;;;;;;6.40;72.85;101747.38;5046627;28;19920;-54
2022/11/03 05:51:20;;;;;;;;;;;;;;;6.40;72.85;101742.16;5049793;28;19925;-52
2022/11/03 05:53:47;;;;;;;;;;;;;;;6.42;72.99;101742.09;5046775;28;19920;-54
2022/11/03 05:56:16;;;;;;;;;;;;;;;6.42;72.75;101739.50;5047595;28;19956;-52
2022/11/03 05:58:42;;;;;;;;;;;;;;;6.43;72.69;101735.16;5042620;28;19974;-55
2022/11/03 06:01:26;;;;;;;;;;;;;;;6.44;72.76;101736.84;5043272;28;20351;-52
2022/11/03 06:03:52;;;;;;;;;;;;;;;6.45;72.49;101733.31;5041419;28;19940;-51
2022/11/03 06:06:23;;;;;;;;;;;;;;;6.45;72.41;101734.19;5047864;28;19921;-51
2022/11/03 06:08:49;;;;;;;;;;;;;;;6.45;72.71;101728.09;5038578;28;19913;-52
2022/11/03 06:11:26;;;;;;;;;;;;;;;6.44;72.46;101734.22;5040652;28;19933;-52
2022/11/03 06:13:51;;;;;;;;;;;;;;;6.44;72.71;101731.59;5046280;28;19935;-51
2022/11/03 06:16:35;;;;;;;;;;;;;;;6.44;72.72;101727.25;5040474;28;19932;-52
2022/11/03 06:19:03;;;;;;;;;;;;;;;6.44;72.52;101729.88;5044233;28;19996;-54
2022/11/03 06:21:29;;;;;;;;;;;;;;;6.46;72.74;101725.47;5042045;28;19996;-52
2022/11/03 06:23:54;;;;;;;;;;;;;;;6.46;72.50;101732.44;5048909;28;20012;-51
2022/11/03 06:26:22;;;;;;;;;;;;;;;6.46;72.58;101725.47;5050073;28;19917;-55
2022/11/03 06:28:48;;;;;;;;;;;;;;;6.48;72.79;101725.41;5047587;28;20380;-51
2022/11/03 06:31:35;;;;;;;;;;;;;;;6.48;72.83;101728.91;5025457;28;20556;-52
2022/11/03 06:34:01;;;;;;;;;;;;;;;6.49;72.66;101721.91;5042752;28;19928;-51
2022/11/03 06:36:32;;;;;;;;;;;;;;;6.46;72.83;101735.91;5045119;28;19921;-51
2022/11/03 06:39:02;;;;;;;;;;;;;;;6.47;72.78;101737.63;5043189;28;19913;-51
2022/11/03 06:41:34;;;;;;;;;;;;;;;6.46;73.03;101740.28;5046833;28;19951;-52
2022/11/03 06:44:01;;;;;;;;;;;;;;;6.48;72.99;101739.34;5043468;28;19921;-52
2022/11/03 06:46:26;;;;;;;;;;;;;;;6.49;73.04;101740.19;5044809;28;20019;-51
2022/11/03 06:48:53;;;;;;;;;;;;;;;6.54;73.24;101743.56;5045240;28;20016;-51
2022/11/03 06:51:20;;;;;;;;;;;;;;;6.55;73.27;101737.44;5026286;28;19933;-52
2022/11/03 06:53:46;;;;;;;;;;;;;;;6.58;72.99;101734.72;5044166;28;19955;-52
2022/11/03 06:56:14;;;;;;;;;;;;;;;6.60;73.05;101732.94;5043509;28;19963;-54
2022/11/03 06:58:40;;;;;;;;;;;;;;;6.61;73.54;101739.91;5045697;28;21280;-51
2022/11/03 07:01:13;;;;;;;;;;;;;;;6.63;73.10;101742.50;5030770;28;19925;-51
2022/11/03 07:03:39;;;;;;;;;;;;;;;6.65;73.20;101738.09;5030731;28;19917;-56
2022/11/03 07:06:26;;;;;;;;;;;;;;;6.65;73.57;101736.31;5027504;28;19925;-53
2022/11/03 07:08:55;;;;;;;;;;;;;;;6.69;73.29;101742.31;5027795;28;20307;-54
2022/11/03 07:11:25;;;;;;;;;;;;;;;6.70;73.49;101734.44;5022275;28;20011;-52
2022/11/03 07:13:52;;;;;;;;;;;;;;;6.74;73.19;101735.22;5041979;28;20007;-52
2022/11/03 07:16:26;;;;;;;;;;;;;;;6.78;73.36;101736.00;5034151;28;19931;-53
2022/11/03 07:18:52;;;;;;;;;;;;;;;6.81;73.66;101735.91;5036966;28;19927;-51
2022/11/03 07:21:27;;;;;;;;;;;;;;;6.85;73.68;101734.94;5032199;28;19921;-55
2022/11/03 07:23:53;;;;;;;;;;;;;;;6.89;73.66;101728.72;5033292;28;19967;-52
2022/11/03 07:26:18;;;;;;;;;;;;;;;6.91;73.58;101726.91;5032841;28;20925;-54
2022/11/03 07:28:47;;;;;;;;;;;;;;;6.95;73.64;101720.72;5029381;28;20467;-52
2022/11/03 07:31:17;;;;;;;;;;;;;;;6.99;73.78;101713.63;5035988;28;19921;-57
2022/11/03 07:33:43;;;;;;;;;;;;;;;7.03;73.73;101709.19;5038814;28;19925;-52
2022/11/03 07:36:11;;;;;;;;;;;;;;;7.07;73.55;101716.91;5040519;28;19931;-51
2022/11/03 07:38:37;;;;;;;;;;;;;;;7.12;73.38;101704.53;5026262;28;20055;-55
2022/11/03 07:41:02;;;;;;;;;;;;;;;7.18;73.77;101708.78;5036927;28;20292;-54
2022/11/03 07:43:30;;;;;;;;;;;;;;;7.21;73.89;101711.28;5034452;28;20407;-52
2022/11/03 07:45:57;;;;;;;;;;;;;;;7.25;73.97;101707.69;5025628;28;19921;-53
2022/11/03 07:48:22;;;;;;;;;;;;;;;7.30;73.97;101707.53;5036882;28;20552;-51
2022/11/03 07:50:49;;;;;;;;;;;;;;;7.32;73.77;101711.84;5034447;28;19979;-52
2022/11/03 07:53:37;;;;;;;;;;;;;;;7.35;73.96;101717.88;5033983;28;19921;-54
2022/11/03 07:56:12;;;;;;;;;;;;;;;7.36;73.91;101711.75;4993965;28;19917;-52
2022/11/03 07:58:38;;;;;;;;;;;;;;;7.38;73.92;101715.19;5036859;28;19917;-52
2022/11/03 08:01:19;;;;;;;;;;;;;;;7.42;73.87;101708.97;5037309;28;19925;-51
2022/11/03 08:03:46;;;;;;;;;;;;;;;7.46;73.79;101707.97;5037176;28;19917;-57
2022/11/03 08:06:11;;;;;;;;;;;;;;;7.48;73.84;101700.94;5021357;28;19928;-53
2022/11/03 08:08:37;;;;;;;;;;;;;;;7.54;74.16;101700.75;5037902;28;19917;-51
2022/11/03 08:11:02;;;;;;;;;;;;;;;7.61;73.88;101696.19;5038497;28;19979;-51
2022/11/03 08:13:27;;;;;;;;;;;;;;;7.69;73.89;101693.31;5035358;28;19928;-52
2022/11/03 08:15:52;;;;;;;;;;;;;;;7.74;74.01;101688.81;5037525;28;19924;-51
2022/11/03 08:18:18;;;;;;;;;;;;;;;7.82;73.81;101688.56;5041917;28;19999;-54
2022/11/03 08:20:43;;;;;;;;;;;;;;;7.88;73.90;101685.75;5043451;28;19928;-54
2022/11/03 08:23:10;;;;;;;;;;;;;;;7.94;73.83;101686.41;5024804;28;20362;-51
2022/11/03 08:25:35;;;;;;;;;;;;;;;8.02;73.41;101674.84;5038494;28;19921;-51
2022/11/03 08:28:02;;;;;;;;;;;;;;;8.07;73.40;101663.28;5034220;28;19931;-53
2022/11/03 08:30:28;;;;;;;;;;;;;;;8.11;73.36;101664.03;5040551;28;20039;-54
2022/11/03 08:32:53;;;;;;;;;;;;;;;8.18;73.26;101656.84;5040600;28;20023;-52
2022/11/03 08:35:18;;;;;;;;;;;;;;;8.23;73.24;101650.56;5043725;28;19940;-52
2022/11/03 08:37:44;;;;;;;;;;;;;;;8.28;73.26;101649.53;5044428;28;19925;-54
2022/11/03 08:40:09;;;;;;;;;;;;;;;8.31;73.30;101641.56;5048852;28;20024;-51
2022/11/03 08:42:34;;;;;;;;;;;;;;;8.36;73.35;101642.28;5048400;28;20380;-51
2022/11/03 08:45:00;;;;;;;;;;;;;;;8.39;73.10;101639.56;5037620;28;20311;-52
2022/11/03 08:47:25;;;;;;;;;;;;;;;8.44;73.18;101636.75;5044598;28;19917;-55
2022/11/03 08:49:50;;;;;;;;;;;;;;;8.46;73.19;101641.03;5047400;28;20311;-52
2022/11/03 08:52:16;;;;;;;;;;;;;;;8.49;73.38;101638.34;5046708;28;20387;-51
2022/11/03 08:54:41;;;;;;;;;;;;;;;8.52;73.35;101643.50;5048507;28;19946;-52
2022/11/03 08:57:06;;;;;;;;;;;;;;;8.57;73.22;101629.34;5041111;28;19928;-53
2022/11/03 08:59:31;;;;;;;;;;;;;;;8.60;73.23;101624.00;5046893;28;20303;-51
2022/11/03 09:01:57;;;;;;;;;;;;;;;8.64;73.37;101633.47;5042176;28;19932;-54
2022/11/03 09:04:22;;;;;;;;;;;;;;;8.68;73.54;101627.22;5040059;28;19932;-52
2022/11/03 09:06:47;;;;;;;;;;;;;;;8.73;73.45;101621.78;5038664;28;20383;-52
2022/11/03 09:09:13;;;;;;;;;;;;;;;8.80;73.51;101620.66;5039379;28;19939;-52
2022/11/03 09:11:38;;;;;;;;;;;;;;;8.87;73.56;101626.53;5040912;28;19983;-52
2022/11/03 09:14:03;;;;;;;;;;;;;;;8.93;73.38;101621.06;5039777;28;19917;-54
2022/11/03 09:16:29;;;;;;;;;;;;;;;8.98;73.29;101624.38;5040631;28;19928;-53
2022/11/03 09:18:54;;;;;;;;;;;;;;;9.03;73.14;101611.94;5040686;28;19996;-53
2022/11/03 09:21:19;;;;;;;;;;;;;;;9.08;73.04;101609.13;5041203;28;19924;-52
2022/11/03 09:23:45;;;;;;;;;;;;;;;9.14;72.90;101603.66;5037590;28;19939;-53
2022/11/03 09:26:10;;;;;;;;;;;;;;;9.19;72.96;101599.09;5036622;28;19929;-52
2022/11/03 09:28:35;;;;;;;;;;;;;;;9.23;73.03;101594.56;5039556;28;20032;-55
2022/11/03 09:31:01;;;;;;;;;;;;;;;9.26;73.04;101597.09;5040163;28;19924;-53
2022/11/03 09:33:26;;;;;;;;;;;;;;;9.30;73.32;101588.19;5039019;28;19979;-53
2022/11/03 09:35:51;;;;;;;;;;;;;;;9.34;72.96;101589.75;5041351;28;19924;-53
2022/11/03 09:38:16;;;;;;;;;;;;;;;9.40;72.39;101576.38;5039085;28;19917;-52
2022/11/03 09:40:42;;;;;;;;;;;;;;;9.46;72.22;101577.91;5035227;28;19925;-53
2022/11/03 09:43:07;;;;;;;;;;;;;;;9.52;71.75;101575.06;5038928;28;20020;-53
2022/11/03 09:45:32;;;;;;;;;;;;;;;9.58;71.81;101572.16;5043879;28;19916;-53
2022/11/03 09:47:58;;;;;;;;;;;;;;;9.64;71.45;101565.81;5046314;28;19956;-53
2022/11/03 09:50:23;;;;;;;;;;;;;;;9.71;70.97;101564.66;5046578;28;19987;-53
2022/11/03 09:52:51;;;;;;;;;;;;;;;9.79;70.84;101552.94;5034873;28;20385;-55
2022/11/03 09:55:18;;;;;;;;;;;;;;;9.86;70.04;101551.78;5041989;28;19917;-53
2022/11/03 09:57:44;;;;;;;;;;;;;;;9.93;69.25;101550.59;5026815;28;19945;-53
2022/11/03 10:00:17;;;;;;;;;;;;;;;9.99;69.00;101550.34;5043197;28;20376;-54
2022/11/03 10:02:43;;;;;;;;;;;;;;;10.05;68.85;101549.22;5033426;28;19932;-54
2022/11/03 10:05:11;;;;;;;;;;;;;;;10.12;68.91;101542.81;5040999;28;20303;-53
2022/11/03 10:07:37;;;;;;;;;;;;;;;10.17;68.68;101545.22;5038237;28;20387;-53
2022/11/03 10:10:03;;;;;;;;;;;;;;;10.24;68.62;101546.66;5040207;28;19925;-53
2022/11/03 10:12:30;;;;;;;;;;;;;;;10.30;68.61;101540.28;5022773;28;19975;-53
2022/11/03 10:14:56;;;;;;;;;;;;;;;10.36;68.16;101546.13;5038706;28;20392;-54
2022/11/03 10:17:25;;;;;;;;;;;;;;;10.41;68.06;101535.44;5039963;28;19924;-54
2022/11/03 10:19:51;;;;;;;;;;;;;;;10.45;68.01;101520.38;5036518;28;19921;-53
2022/11/03 10:22:18;;;;;;;;;;;;;;;10.48;67.53;101514.97;5041109;28;19964;-54
2022/11/03 10:24:44;;;;;;;;;;;;;;;10.53;67.36;101515.59;5035712;28;19916;-55
2022/11/03 10:27:24;;;;;;;;;;;;;;;10.55;67.02;101505.88;5040228;28;20332;-57
2022/11/03 10:30:09;;;;;;;;;;;;;;;10.60;66.59;101508.28;5033956;28;19940;-54
2022/11/03 10:32:35;;;;;;;;;;;;;;;10.64;66.59;101502.84;5037981;28;20430;-54
2022/11/03 10:35:01;;;;;;;;;;;;;;;10.67;66.28;101499.19;5038583;28;19925;-54
2022/11/03 10:37:27;;;;;;;;;;;;;;;10.70;65.72;101491.16;5041039;28;19916;-54
2022/11/03 10:39:53;;;;;;;;;;;;;;;10.73;65.36;101490.16;5039192;28;21096;-54
2022/11/03 10:42:23;;;;;;;;;;;;;;;10.77;65.14;101483.84;5039206;28;19928;-52
2022/11/03 10:45:07;;;;;;;;;;;;;;;10.82;65.01;101487.09;5041618;28;19921;-53
2022/11/03 10:47:33;;;;;;;;;;;;;;;10.88;64.96;101481.53;5038822;28;20003;-51
2022/11/03 10:50:19;;;;;;;;;;;;;;;10.93;64.87;101474.28;5038242;28;20020;-53
2022/11/03 10:52:44;;;;;;;;;;;;;;;10.97;64.24;101470.56;5034835;28;20023;-57
2022/11/03 10:55:10;;;;;;;;;;;;;;;11.03;64.11;101465.94;5041018;28;20023;-55
2022/11/03 10:57:35;;;;;;;;;;;;;;;11.07;64.04;101470.13;5037023;28;19925;-56
2022/11/03 11:00:00;;;;;;;;;;;;;;;11.10;63.75;101467.38;5033198;28;19929;-53
2022/11/03 11:02:30;;;;;;;;;;;;;;;11.13;63.98;101460.16;5043523;28;19952;-53
2022/11/03 11:04:58;;;;;;;;;;;;;;;11.19;64.13;101460.78;5041195;28;19923;-55
2022/11/03 11:07:25;;;;;;;;;;;;;;;11.22;63.63;101453.59;5042310;28;19929;-56
2022/11/03 11:09:52;;;;;;;;;;;;;;;11.27;63.71;101445.44;5040344;28;19925;-54
2022/11/03 11:12:20;;;;;;;;;;;;;;;11.33;63.92;101450.44;5040919;28;19921;-53
2022/11/03 11:14:59;;;;;;;;;;;;;;;11.38;64.05;101435.22;5022308;28;19917;-55
2022/11/03 11:17:37;;;;;;;;;;;;;;;11.46;64.39;101429.56;5035831;28;20396;-52
2022/11/03 11:20:22;;;;;;;;;;;;;;;11.52;64.42;101436.31;5015714;28;20092;-54
2022/11/03 11:22:49;;;;;;;;;;;;;;;11.61;64.51;101427.09;5012076;28;19924;-52
2022/11/03 11:25:14;;;;;;;;;;;;;;;11.66;63.91;101430.34;5031510;28;21626;-54
2022/11/03 11:27:40;;;;;;;;;;;;;;;11.73;63.49;101429.09;5033420;28;19971;-52
2022/11/03 11:30:25;;;;;;;;;;;;;;;11.81;64.01;101431.31;5029856;28;19963;-50
2022/11/03 11:32:59;;;;;;;;;;;;;;;11.87;63.09;101416.03;4998514;28;19924;-53
2022/11/03 11:35:25;;;;;;;;;;;;;;;11.95;62.94;101412.16;5039841;28;19917;-55
2022/11/03 11:37:50;;;;;;;;;;;;;;;12.02;63.28;101409.13;5038059;28;20398;-58
2022/11/03 11:40:22;;;;;;;;;;;;;;;12.08;62.80;101415.88;5034865;28;19928;-57
2022/11/03 11:43:05;;;;;;;;;;;;;;;12.15;62.86;101412.00;5038695;28;19987;-53
2022/11/03 11:45:49;;;;;;;;;;;;;;;12.20;62.74;101399.38;5034971;28;20011;-50
2022/11/03 11:48:17;;;;;;;;;;;;;;;12.26;62.57;101386.78;5032023;28;19931;-54
2022/11/03 11:50:42;;;;;;;;;;;;;;;12.32;62.60;101387.31;5034130;28;19933;-54
2022/11/03 11:53:18;;;;;;;;;;;;;;;12.39;61.89;101387.81;5034082;28;19924;-53
2022/11/03 11:55:53;;;;;;;;;;;;;;;12.46;62.32;101380.41;5030783;28;20304;-53
2022/11/03 11:58:24;;;;;;;;;;;;;;;12.52;62.39;101364.25;5038300;28;19925;-54
2022/11/03 12:00:51;;;;;;;;;;;;;;;12.57;61.98;101363.97;5036758;28;19979;-53
2022/11/03 12:03:21;;;;;;;;;;;;;;;12.61;62.03;101360.25;5038648;28;19925;-55
2022/11/03 12:05:48;;;;;;;;;;;;;;;12.67;62.12;101361.69;5038735;28;19921;-52
2022/11/03 12:08:23;;;;;;;;;;;;;;;12.70;61.62;101351.78;5023817;28;19952;-52
2022/11/03 12:10:52;;;;;;;;;;;;;;;12.76;61.59;101348.81;5037695;28;19920;-53
2022/11/03 12:13:38;;;;;;;;;;;;;;;12.83;61.88;101345.78;5042843;28;19917;-55
2022/11/03 12:16:03;;;;;;;;;;;;;;;12.86;61.08;101337.69;5020109;28;20388;-53
2022/11/03 12:18:36;;;;;;;;;;;;;;;12.92;61.68;101338.19;5028925;28;20036;-55
2022/11/03 12:21:02;;;;;;;;;;;;;;;12.96;61.36;101329.16;5035067;28;19929;-53
2022/11/03 12:23:32;;;;;;;;;;;;;;;13.01;61.00;101314.84;5033749;28;20695;-53
2022/11/03 12:25:57;;;;;;;;;;;;;;;13.04;61.10;101318.16;5039603;28;20016;-54
2022/11/03 12:28:30;;;;;;;;;;;;;;;13.08;60.93;101318.81;5046183;28;20347;-53
2022/11/03 12:30:55;;;;;;;;;;;;;;;13.11;60.18;101318.63;5050950;28;20008;-53
2022/11/03 12:33:20;;;;;;;;;;;;;;;13.11;60.21;101311.53;5046999;28;20021;-54
2022/11/03 12:35:46;;;;;;;;;;;;;;;13.13;60.27;101307.97;5041738;28;19928;-53
2022/11/03 12:38:11;;;;;;;;;;;;;;;13.17;60.21;101320.06;5040992;28;21582;-53
2022/11/03 12:40:36;;;;;;;;;;;;;;;13.20;60.32;101315.44;5043880;28;19957;-53
2022/11/03 12:43:01;;;;;;;;;;;;;;;13.24;60.63;101321.38;5045674;28;20011;-53
2022/11/03 12:45:27;;;;;;;;;;;;;;;13.28;60.26;101301.75;5040749;28;20048;-55
2022/11/03 12:47:52;;;;;;;;;;;;;;;13.28;60.05;101307.03;5032944;28;19945;-53
2022/11/03 12:50:17;;;;;;;;;;;;;;;13.26;60.15;101301.00;5043253;28;20336;-55
2022/11/03 12:52:43;;;;;;;;;;;;;;;13.27;60.06;101305.34;5036953;28;19923;-54
2022/11/03 12:55:08;;;;;;;;;;;;;;;13.30;60.61;101304.31;5039556;28;19928;-55
2022/11/03 12:57:34;;;;;;;;;;;;;;;13.31;60.17;101301.56;5046750;28;20406;-53
2022/11/03 12:59:59;;;;;;;;;;;;;;;13.32;60.15;101302.41;5042440;28;20600;-52
2022/11/03 13:02:24;;;;;;;;;;;;;;;13.31;59.91;101290.16;5041474;28;19924;-53
2022/11/03 13:04:50;;;;;;;;;;;;;;;13.27;59.83;101289.47;5043515;28;19927;-55